createdAt,value
2022-12-22T00:10:19.593Z,34.30
2022-12-22T00:20:44.391Z,45.00
2022-12-22T00:31:09.587Z,45.40
2022-12-22T00:41:34.291Z,36.00
2022-12-22T00:51:59.646Z,31.30
2022-12-22T01:02:24.620Z,31.50
2022-12-22T01:12:50.924Z,30.90
2022-12-22T01:23:15.777Z,43.30
2022-12-22T01:33:40.725Z,43.50
2022-12-22T01:44:04.479Z,34.50
2022-12-22T01:54:30.741Z,31.00
2022-12-22T02:15:20.874Z,34.60
2022-12-22T02:25:52.894Z,46.50
2022-12-22T02:36:27.655Z,48.10
2022-12-22T02:46:53.905Z,31.80
2022-12-22T02:57:21.216Z,34.10
2022-12-22T03:07:46.082Z,25.40
2022-12-22T03:18:10.790Z,31.70
2022-12-22T03:28:18.125Z,35.20
2022-12-22T03:38:25.384Z,28.70
2022-12-22T03:48:32.410Z,26.20
2022-12-22T03:58:39.506Z,31.40
2022-12-22T04:08:46.814Z,31.60
2022-12-22T04:18:53.954Z,37.40
2022-12-22T04:29:01.175Z,41.50
2022-12-22T04:39:09.033Z,34.40
2022-12-22T04:49:16.130Z,31.30
2022-12-22T04:59:23.205Z,30.30
2022-12-22T05:09:30.923Z,35.30
2022-12-22T05:19:37.066Z,38.80
2022-12-22T05:39:50.623Z,31.40
2022-12-22T05:49:57.849Z,37.30
2022-12-22T06:00:06.570Z,40.30
2022-12-22T06:10:15.333Z,33.60
2022-12-22T06:20:22.918Z,33.80
2022-12-22T06:30:33.638Z,35.30
2022-12-22T06:40:41.371Z,43.40
2022-12-22T06:50:48.911Z,45.40
2022-12-22T07:00:57.316Z,45.40
2022-12-22T07:11:04.280Z,42.90
2022-12-22T07:21:12.844Z,40.70
2022-12-22T07:31:20.797Z,45.20
2022-12-22T07:41:45.117Z,48.50
2022-12-22T07:51:52.749Z,47.40
2022-12-22T08:01:59.364Z,63.10
2022-12-22T08:12:07.457Z,59.40
2022-12-22T08:22:14.622Z,46.20
2022-12-22T08:32:21.780Z,46.70
2022-12-22T08:42:29.767Z,46.00
2022-12-22T08:52:36.877Z,51.90
2022-12-22T09:02:44.205Z,42.20
2022-12-22T09:12:51.436Z,54.60
2022-12-22T09:22:59.361Z,54.80
2022-12-22T09:33:05.760Z,36.10
2022-12-22T09:43:14.632Z,30.90
2022-12-22T09:53:22.461Z,33.70
2022-12-22T10:03:30.674Z,25.90
2022-12-22T10:13:37.787Z,37.50
2022-12-22T10:23:48.919Z,32.60
2022-12-22T10:33:57.596Z,23.30
2022-12-22T10:44:06.385Z,22.10
2022-12-22T10:54:25.779Z,19.00
2022-12-22T11:04:32.843Z,27.60
2022-12-22T11:14:39.905Z,39.90
2022-12-22T11:24:46.941Z,30.40
2022-12-22T11:34:52.865Z,22.60
2022-12-22T11:44:58.181Z,31.40
2022-12-22T11:55:23.881Z,25.10
2022-12-22T12:06:00.219Z,22.00
2022-12-22T12:16:06.673Z,13.90
2022-12-22T12:26:19.844Z,24.50
2022-12-22T12:36:37.626Z,15.10
2022-12-22T12:46:45.884Z,18.50
2022-12-22T12:57:00.027Z,16.20
2022-12-22T13:07:07.821Z,26.10
2022-12-22T13:17:33.686Z,19.10
2022-12-22T13:27:41.379Z,18.30
2022-12-22T13:37:48.930Z,16.60
2022-12-22T13:47:57.005Z,18.70
2022-12-22T13:58:02.322Z,27.00
2022-12-22T14:08:06.878Z,25.40
2022-12-22T14:18:15.672Z,27.60
2022-12-22T14:28:27.128Z,26.40
2022-12-22T14:38:40.670Z,27.60
2022-12-22T14:48:48.694Z,24.00
2022-12-22T14:59:09.181Z,27.20
2022-12-22T15:10:12.410Z,28.60
2022-12-22T15:19:58.181Z,27.10
2022-12-22T15:30:07.378Z,29.20
2022-12-22T15:40:17.224Z,29.60
2022-12-22T15:50:23.774Z,29.30
2022-12-22T16:00:30.833Z,36.10
2022-12-22T16:10:38.097Z,42.60
2022-12-22T16:20:46.637Z,38.60
2022-12-22T16:30:54.699Z,29.40
2022-12-22T16:41:03.714Z,31.20
2022-12-22T16:51:15.946Z,27.30
2022-12-22T17:01:22.410Z,25.80
2022-12-22T17:11:29.227Z,37.80
2022-12-22T17:21:36.632Z,40.70
2022-12-22T17:31:43.829Z,28.10
2022-12-22T17:41:56.784Z,30.80
2022-12-22T17:52:04.577Z,27.10
2022-12-22T18:02:12.303Z,32.10
2022-12-22T18:12:22.803Z,39.90
2022-12-22T18:22:31.540Z,43.10
2022-12-22T18:32:40.659Z,35.80
2022-12-22T18:42:47.857Z,38.50
2022-12-22T18:52:57.000Z,35.90
2022-12-22T19:03:14.539Z,62.10
2022-12-22T19:13:24.172Z,54.80
2022-12-22T19:23:31.414Z,37.70
2022-12-22T19:33:40.508Z,37.00
2022-12-22T19:43:47.979Z,32.90
2022-12-22T19:53:54.634Z,33.30
2022-12-22T20:04:00.568Z,44.80
2022-12-22T20:14:07.996Z,40.30
2022-12-22T20:24:14.203Z,39.30
2022-12-22T20:34:21.303Z,35.30
2022-12-22T20:44:28.690Z,31.80
2022-12-22T20:54:34.747Z,33.20
2022-12-22T21:04:41.043Z,48.80
2022-12-22T21:14:49.686Z,58.90
2022-12-22T21:24:56.769Z,46.60
2022-12-22T21:35:07.991Z,32.40
2022-12-22T21:45:16.312Z,30.50
2022-12-22T21:55:21.963Z,27.00
2022-12-22T22:05:26.440Z,50.40
2022-12-22T22:15:34.848Z,36.80
2022-12-22T22:25:42.161Z,30.50
2022-12-22T22:35:47.337Z,27.80
2022-12-22T22:45:54.805Z,28.10
2022-12-22T22:56:03.086Z,33.50
2022-12-22T23:06:13.320Z,20.90
2022-12-22T23:16:20.121Z,23.70
2022-12-22T23:26:27.949Z,23.40
2022-12-22T23:36:35.553Z,23.90
2022-12-22T23:46:42.646Z,23.40
2022-12-22T23:56:50.007Z,18.50
